sensor_id;sensor_type;location;lat;lon;timestamp;pressure;altitude;pressure_sealevel;temperature;humidity
19236;BME280;9752;54.270;12.470;2023-01-01T00:03:10;100593.69;;;13.16;100.00
19236;BME280;9752;54.270;12.470;2023-01-01T00:08:12;100577.88;;;13.12;100.00
19236;BME280;9752;54.270;12.470;2023-01-01T00:13:15;100567.28;;;13.26;100.00
19236;BME280;9752;54.270;12.470;2023-01-01T00:18:16;100545.31;;;13.21;100.00
19236;BME280;9752;54.270;12.470;2023-01-01T00:23:18;100543.00;;;13.27;100.00
19236;BME280;9752;54.270;12.470;2023-01-01T00:28:21;100522.22;;;13.29;100.00
19236;BME280;9752;54.270;12.470;2023-01-01T00:33:22;100500.88;;;13.36;100.00
19236;BME280;9752;54.270;12.470;2023-01-01T00:38:24;100495.59;;;13.35;100.00
19236;BME280;9752;54.270;12.470;2023-01-01T00:43:27;100493.00;;;13.35;100.00
19236;BME280;9752;54.270;12.470;2023-01-01T00:48:29;100499.56;;;13.46;100.00
19236;BME280;9752;54.270;12.470;2023-01-01T00:53:31;100496.00;;;13.44;100.00
19236;BME280;9752;54.270;12.470;2023-01-01T00:58:34;100504.91;;;13.49;100.00
19236;BME280;9752;54.270;12.470;2023-01-01T01:03:36;100510.88;;;13.46;100.00
19236;BME280;9752;54.270;12.470;2023-01-01T01:08:40;100512.78;;;13.51;100.00
19236;BME280;9752;54.270;12.470;2023-01-01T01:13:45;100506.00;;;13.54;100.00
19236;BME280;9752;54.270;12.470;2023-01-01T01:18:48;100510.41;;;13.55;100.00
19236;BME280;9752;54.270;12.470;2023-01-01T01:23:51;100502.25;;;13.47;100.00
19236;BME280;9752;54.270;12.470;2023-01-01T01:28:55;100510.94;;;13.48;100.00
19236;BME280;9752;54.270;12.470;2023-01-01T01:33:57;100511.81;;;13.48;100.00
19236;BME280;9752;54.270;12.470;2023-01-01T01:38:58;100516.72;;;13.60;100.00
19236;BME280;9752;54.270;12.470;2023-01-01T01:44:42;100509.22;;;13.68;100.00
19236;BME280;9752;54.270;12.470;2023-01-01T01:49:29;100506.53;;;13.66;100.00
19236;BME280;9752;54.270;12.470;2023-01-01T01:54:32;100514.34;;;13.66;100.00
19236;BME280;9752;54.270;12.470;2023-01-01T01:59:38;100519.50;;;13.65;100.00
19236;BME280;9752;54.270;12.470;2023-01-01T02:04:41;100513.66;;;13.71;100.00
19236;BME280;9752;54.270;12.470;2023-01-01T02:09:43;100514.75;;;13.76;100.00
19236;BME280;9752;54.270;12.470;2023-01-01T02:14:46;100520.66;;;13.72;100.00
19236;BME280;9752;54.270;12.470;2023-01-01T02:20:02;100533.25;;;13.82;100.00
19236;BME280;9752;54.270;12.470;2023-01-01T02:25:13;100527.28;;;13.84;100.00
19236;BME280;9752;54.270;12.470;2023-01-01T02:30:19;100531.75;;;13.87;100.00
19236;BME280;9752;54.270;12.470;2023-01-01T02:35:24;100522.19;;;13.88;100.00
19236;BME280;9752;54.270;12.470;2023-01-01T02:40:37;100515.50;;;13.94;100.00
19236;BME280;9752;54.270;12.470;2023-01-01T02:45:42;100508.31;;;13.89;100.00
19236;BME280;9752;54.270;12.470;2023-01-01T02:50:44;100505.78;;;13.90;100.00
19236;BME280;9752;54.270;12.470;2023-01-01T02:55:53;100493.44;;;14.07;100.00
19236;BME280;9752;54.270;12.470;2023-01-01T03:01:19;100505.72;;;13.89;100.00
19236;BME280;9752;54.270;12.470;2023-01-01T03:06:25;100509.72;;;14.01;100.00
19236;BME280;9752;54.270;12.470;2023-01-01T03:11:35;100525.13;;;14.16;100.00
19236;BME280;9752;54.270;12.470;2023-01-01T03:16:43;100525.50;;;14.25;100.00
19236;BME280;9752;54.270;12.470;2023-01-01T03:21:50;100529.31;;;14.34;100.00
19236;BME280;9752;54.270;12.470;2023-01-01T03:26:56;100542.97;;;14.27;100.00
19236;BME280;9752;54.270;12.470;2023-01-01T03:32:04;100542.03;;;14.26;100.00
19236;BME280;9752;54.270;12.470;2023-01-01T03:37:11;100535.53;;;14.37;100.00
19236;BME280;9752;54.270;12.470;2023-01-01T03:42:20;100528.66;;;14.39;100.00
19236;BME280;9752;54.270;12.470;2023-01-01T03:47:25;100517.41;;;14.40;100.00
19236;BME280;9752;54.270;12.470;2023-01-01T03:52:32;100530.09;;;14.31;100.00
19236;BME280;9752;54.270;12.470;2023-01-01T03:57:47;100526.53;;;14.29;100.00
19236;BME280;9752;54.270;12.470;2023-01-01T04:02:55;100539.50;;;14.28;100.00
19236;BME280;9752;54.270;12.470;2023-01-01T04:08:00;100528.06;;;14.24;100.00
19236;BME280;9752;54.270;12.470;2023-01-01T04:13:04;100549.06;;;14.27;100.00
19236;BME280;9752;54.270;12.470;2023-01-01T04:18:07;100553.88;;;14.39;100.00
19236;BME280;9752;54.270;12.470;2023-01-01T04:23:09;100565.66;;;14.29;100.00
19236;BME280;9752;54.270;12.470;2023-01-01T04:28:11;100569.94;;;14.27;100.00
19236;BME280;9752;54.270;12.470;2023-01-01T04:33:15;100586.16;;;14.20;100.00
19236;BME280;9752;54.270;12.470;2023-01-01T04:38:16;100572.84;;;14.14;100.00
19236;BME280;9752;54.270;12.470;2023-01-01T04:43:18;100591.81;;;14.10;100.00
19236;BME280;9752;54.270;12.470;2023-01-01T04:48:21;100595.22;;;14.09;100.00
19236;BME280;9752;54.270;12.470;2023-01-01T04:53:23;100591.53;;;14.24;100.00
19236;BME280;9752;54.270;12.470;2023-01-01T04:58:25;100582.97;;;14.27;100.00
19236;BME280;9752;54.270;12.470;2023-01-01T05:03:30;100603.91;;;14.29;100.00
19236;BME280;9752;54.270;12.470;2023-01-01T05:08:33;100617.00;;;14.30;100.00
19236;BME280;9752;54.270;12.470;2023-01-01T05:13:35;100615.34;;;14.32;100.00
19236;BME280;9752;54.270;12.470;2023-01-01T05:18:39;100624.78;;;14.29;100.00
19236;BME280;9752;54.270;12.470;2023-01-01T05:23:41;100635.72;;;14.20;100.00
19236;BME280;9752;54.270;12.470;2023-01-01T05:28:43;100654.03;;;14.21;100.00
19236;BME280;9752;54.270;12.470;2023-01-01T05:33:46;100659.47;;;14.06;100.00
19236;BME280;9752;54.270;12.470;2023-01-01T05:38:49;100652.47;;;14.05;100.00
19236;BME280;9752;54.270;12.470;2023-01-01T05:43:51;100664.72;;;13.87;100.00
19236;BME280;9752;54.270;12.470;2023-01-01T05:48:54;100674.09;;;13.83;100.00
19236;BME280;9752;54.270;12.470;2023-01-01T05:53:57;100671.53;;;13.65;100.00
19236;BME280;9752;54.270;12.470;2023-01-01T05:58:59;100664.84;;;13.71;100.00
19236;BME280;9752;54.270;12.470;2023-01-01T06:04:02;100678.56;;;13.66;100.00
19236;BME280;9752;54.270;12.470;2023-01-01T06:09:04;100663.53;;;13.61;100.00
19236;BME280;9752;54.270;12.470;2023-01-01T06:14:05;100662.22;;;13.71;100.00
19236;BME280;9752;54.270;12.470;2023-01-01T06:19:08;100669.16;;;13.70;100.00
19236;BME280;9752;54.270;12.470;2023-01-01T06:24:10;100670.50;;;13.62;100.00
19236;BME280;9752;54.270;12.470;2023-01-01T06:29:12;100675.19;;;13.69;100.00
19236;BME280;9752;54.270;12.470;2023-01-01T06:34:15;100666.81;;;13.76;100.00
19236;BME280;9752;54.270;12.470;2023-01-01T06:39:17;100675.19;;;13.89;100.00
19236;BME280;9752;54.270;12.470;2023-01-01T06:44:18;100663.81;;;14.06;100.00
19236;BME280;9752;54.270;12.470;2023-01-01T06:49:21;100673.31;;;14.05;100.00
19236;BME280;9752;54.270;12.470;2023-01-01T06:54:23;100684.53;;;14.03;100.00
19236;BME280;9752;54.270;12.470;2023-01-01T06:59:24;100697.38;;;13.98;100.00
19236;BME280;9752;54.270;12.470;2023-01-01T07:04:27;100683.50;;;13.99;100.00
19236;BME280;9752;54.270;12.470;2023-01-01T07:09:29;100701.34;;;14.29;100.00
19236;BME280;9752;54.270;12.470;2023-01-01T07:14:31;100721.09;;;14.24;100.00
19236;BME280;9752;54.270;12.470;2023-01-01T07:19:34;100715.69;;;14.19;100.00
19236;BME280;9752;54.270;12.470;2023-01-01T07:24:35;100735.59;;;14.17;100.00
19236;BME280;9752;54.270;12.470;2023-01-01T07:29:38;100745.75;;;14.11;100.00
19236;BME280;9752;54.270;12.470;2023-01-01T07:34:41;100753.53;;;14.10;100.00
19236;BME280;9752;54.270;12.470;2023-01-01T07:39:43;100756.16;;;14.11;100.00
19236;BME280;9752;54.270;12.470;2023-01-01T07:44:44;100775.81;;;14.22;100.00
19236;BME280;9752;54.270;12.470;2023-01-01T07:49:49;100796.13;;;14.10;100.00
19236;BME280;9752;54.270;12.470;2023-01-01T07:54:50;100823.63;;;13.14;100.00
19236;BME280;9752;54.270;12.470;2023-01-01T07:59:53;100850.97;;;12.55;100.00
19236;BME280;9752;54.270;12.470;2023-01-01T08:04:57;100858.09;;;12.42;100.00
19236;BME280;9752;54.270;12.470;2023-01-01T08:09:58;100840.56;;;12.22;100.00
19236;BME280;9752;54.270;12.470;2023-01-01T08:15:00;100856.31;;;12.08;100.00
19236;BME280;9752;54.270;12.470;2023-01-01T08:20:04;100876.09;;;12.06;100.00
19236;BME280;9752;54.270;12.470;2023-01-01T08:25:07;100870.66;;;12.02;100.00
19236;BME280;9752;54.270;12.470;2023-01-01T08:30:11;100870.84;;;12.05;100.00
19236;BME280;9752;54.270;12.470;2023-01-01T08:35:14;100861.50;;;12.08;100.00
19236;BME280;9752;54.270;12.470;2023-01-01T08:40:16;100864.28;;;12.28;100.00
19236;BME280;9752;54.270;12.470;2023-01-01T08:45:17;100881.78;;;12.47;100.00
19236;BME280;9752;54.270;12.470;2023-01-01T08:50:20;100878.59;;;12.69;100.00
19236;BME280;9752;54.270;12.470;2023-01-01T08:55:22;100891.03;;;12.91;100.00
19236;BME280;9752;54.270;12.470;2023-01-01T09:00:24;100886.50;;;13.03;100.00
19236;BME280;9752;54.270;12.470;2023-01-01T09:05:26;100870.19;;;13.07;100.00
19236;BME280;9752;54.270;12.470;2023-01-01T09:10:28;100874.44;;;13.05;100.00
19236;BME280;9752;54.270;12.470;2023-01-01T09:15:30;100880.31;;;13.01;100.00
19236;BME280;9752;54.270;12.470;2023-01-01T09:20:34;100876.22;;;13.06;100.00
19236;BME280;9752;54.270;12.470;2023-01-01T09:25:36;100886.03;;;13.28;100.00
19236;BME280;9752;54.270;12.470;2023-01-01T09:30:37;100893.16;;;13.67;100.00
19236;BME280;9752;54.270;12.470;2023-01-01T09:35:40;100897.84;;;13.92;100.00
19236;BME280;9752;54.270;12.470;2023-01-01T09:40:51;100910.38;;;13.99;100.00
19236;BME280;9752;54.270;12.470;2023-01-01T09:45:59;100924.16;;;14.15;100.00
19236;BME280;9752;54.270;12.470;2023-01-01T09:51:05;100931.13;;;14.34;100.00
19236;BME280;9752;54.270;12.470;2023-01-01T09:56:14;100936.06;;;14.45;100.00
19236;BME280;9752;54.270;12.470;2023-01-01T10:01:30;100937.69;;;14.43;100.00
19236;BME280;9752;54.270;12.470;2023-01-01T10:06:41;100948.66;;;14.36;100.00
19236;BME280;9752;54.270;12.470;2023-01-01T10:11:52;100952.94;;;14.34;100.00
19236;BME280;9752;54.270;12.470;2023-01-01T10:16:58;100961.28;;;14.27;100.00
19236;BME280;9752;54.270;12.470;2023-01-01T10:22:06;100983.25;;;14.32;100.00
19236;BME280;9752;54.270;12.470;2023-01-01T10:27:18;100981.56;;;14.33;100.00
19236;BME280;9752;54.270;12.470;2023-01-01T10:32:26;100990.94;;;14.11;100.00
19236;BME280;9752;54.270;12.470;2023-01-01T10:37:34;101005.97;;;14.17;100.00
19236;BME280;9752;54.270;12.470;2023-01-01T10:42:36;101013.88;;;14.18;100.00
19236;BME280;9752;54.270;12.470;2023-01-01T10:47:37;101018.38;;;14.21;100.00
19236;BME280;9752;54.270;12.470;2023-01-01T10:52:40;101034.03;;;14.21;100.00
19236;BME280;9752;54.270;12.470;2023-01-01T10:57:44;101039.78;;;14.14;100.00
19236;BME280;9752;54.270;12.470;2023-01-01T11:02:46;101051.59;;;14.07;100.00
19236;BME280;9752;54.270;12.470;2023-01-01T11:07:49;101060.88;;;13.84;100.00
19236;BME280;9752;54.270;12.470;2023-01-01T11:12:51;101068.88;;;13.71;100.00
19236;BME280;9752;54.270;12.470;2023-01-01T11:18:01;101045.25;;;13.67;100.00
19236;BME280;9752;54.270;12.470;2023-01-01T11:23:19;101078.91;;;13.63;100.00
19236;BME280;9752;54.270;12.470;2023-01-01T11:28:27;101074.19;;;13.56;100.00
19236;BME280;9752;54.270;12.470;2023-01-01T11:33:32;101087.13;;;13.54;100.00
19236;BME280;9752;54.270;12.470;2023-01-01T11:38:36;101100.59;;;13.45;100.00
19236;BME280;9752;54.270;12.470;2023-01-01T11:43:42;101098.06;;;13.47;100.00
19236;BME280;9752;54.270;12.470;2023-01-01T11:48:44;101117.44;;;13.36;100.00
19236;BME280;9752;54.270;12.470;2023-01-01T11:53:47;101117.00;;;13.44;100.00
19236;BME280;9752;54.270;12.470;2023-01-01T11:58:51;101119.22;;;13.53;100.00
19236;BME280;9752;54.270;12.470;2023-01-01T12:03:58;101125.16;;;13.34;100.00
19236;BME280;9752;54.270;12.470;2023-01-01T12:09:09;101136.50;;;13.20;100.00
19236;BME280;9752;54.270;12.470;2023-01-01T12:14:17;101159.97;;;13.05;100.00
19236;BME280;9752;54.270;12.470;2023-01-01T12:19:21;101147.81;;;12.89;100.00
19236;BME280;9752;54.270;12.470;2023-01-01T12:24:31;101154.03;;;12.76;100.00
19236;BME280;9752;54.270;12.470;2023-01-01T12:29:45;101157.28;;;12.57;100.00
19236;BME280;9752;54.270;12.470;2023-01-01T12:34:53;101166.34;;;12.34;100.00
19236;BME280;9752;54.270;12.470;2023-01-01T12:40:27;101183.91;;;12.23;100.00
19236;BME280;9752;54.270;12.470;2023-01-01T12:46:10;101185.25;;;12.17;100.00
19236;BME280;9752;54.270;12.470;2023-01-01T12:51:22;101214.03;;;12.20;100.00
19236;BME280;9752;54.270;12.470;2023-01-01T12:56:32;101211.38;;;12.33;100.00
19236;BME280;9752;54.270;12.470;2023-01-01T13:01:36;101210.38;;;12.31;100.00
19236;BME280;9752;54.270;12.470;2023-01-01T13:06:42;101244.19;;;12.31;100.00
19236;BME280;9752;54.270;12.470;2023-01-01T13:11:49;101239.44;;;12.24;100.00
19236;BME280;9752;54.270;12.470;2023-01-01T13:16:53;101245.06;;;12.17;100.00
19236;BME280;9752;54.270;12.470;2023-01-01T13:21:55;101237.63;;;12.23;100.00
19236;BME280;9752;54.270;12.470;2023-01-01T13:26:58;101250.00;;;12.27;100.00
19236;BME280;9752;54.270;12.470;2023-01-01T13:32:10;101272.84;;;12.18;100.00
19236;BME280;9752;54.270;12.470;2023-01-01T13:37:28;101286.56;;;12.15;100.00
19236;BME280;9752;54.270;12.470;2023-01-01T13:42:43;101298.88;;;11.89;100.00
19236;BME280;9752;54.270;12.470;2023-01-01T13:48:09;101326.50;;;11.89;100.00
19236;BME280;9752;54.270;12.470;2023-01-01T13:53:36;101319.13;;;11.82;100.00
19236;BME280;9752;54.270;12.470;2023-01-01T13:59:04;101334.72;;;11.68;100.00
19236;BME280;9752;54.270;12.470;2023-01-01T14:04:16;101340.25;;;11.60;100.00
19236;BME280;9752;54.270;12.470;2023-01-01T14:09:21;101333.66;;;11.51;100.00
19236;BME280;9752;54.270;12.470;2023-01-01T14:14:25;101333.56;;;11.37;100.00
19236;BME280;9752;54.270;12.470;2023-01-01T14:19:28;101360.28;;;11.09;100.00
19236;BME280;9752;54.270;12.470;2023-01-01T14:24:39;101350.09;;;10.99;100.00
19236;BME280;9752;54.270;12.470;2023-01-01T14:29:45;101362.44;;;10.89;100.00
19236;BME280;9752;54.270;12.470;2023-01-01T14:34:57;101374.22;;;10.98;100.00
19236;BME280;9752;54.270;12.470;2023-01-01T14:40:06;101391.63;;;10.99;100.00
19236;BME280;9752;54.270;12.470;2023-01-01T14:45:14;101404.56;;;10.85;100.00
19236;BME280;9752;54.270;12.470;2023-01-01T14:50:21;101410.53;;;10.59;100.00
19236;BME280;9752;54.270;12.470;2023-01-01T14:55:25;101411.28;;;10.33;100.00
19236;BME280;9752;54.270;12.470;2023-01-01T15:00:31;101413.19;;;10.24;100.00
19236;BME280;9752;54.270;12.470;2023-01-01T15:05:34;101415.94;;;10.02;100.00
19236;BME280;9752;54.270;12.470;2023-01-01T15:10:37;101425.53;;;9.91;100.00
19236;BME280;9752;54.270;12.470;2023-01-01T15:15:42;101425.75;;;9.82;100.00
19236;BME280;9752;54.270;12.470;2023-01-01T15:20:51;101436.09;;;9.82;100.00
19236;BME280;9752;54.270;12.470;2023-01-01T15:25:53;101439.25;;;9.90;100.00
19236;BME280;9752;54.270;12.470;2023-01-01T15:30:57;101440.22;;;10.27;100.00
19236;BME280;9752;54.270;12.470;2023-01-01T15:35:58;101445.22;;;10.36;100.00
19236;BME280;9752;54.270;12.470;2023-01-01T15:41:24;101455.09;;;10.53;100.00
19236;BME280;9752;54.270;12.470;2023-01-01T15:46:27;101475.41;;;10.35;100.00
19236;BME280;9752;54.270;12.470;2023-01-01T15:51:30;101484.75;;;10.22;100.00
19236;BME280;9752;54.270;12.470;2023-01-01T15:56:32;101503.03;;;9.76;100.00
19236;BME280;9752;54.270;12.470;2023-01-01T16:01:41;101511.13;;;10.28;100.00
19236;BME280;9752;54.270;12.470;2023-01-01T16:06:44;101519.47;;;10.24;100.00
19236;BME280;9752;54.270;12.470;2023-01-01T16:11:50;101522.31;;;10.15;100.00
19236;BME280;9752;54.270;12.470;2023-01-01T16:16:55;101518.13;;;10.05;100.00
19236;BME280;9752;54.270;12.470;2023-01-01T16:22:00;101533.47;;;9.90;100.00
19236;BME280;9752;54.270;12.470;2023-01-01T16:27:01;101530.38;;;9.72;100.00
19236;BME280;9752;54.270;12.470;2023-01-01T16:32:05;101538.25;;;9.28;100.00
19236;BME280;9752;54.270;12.470;2023-01-01T16:37:07;101531.56;;;8.86;100.00
19236;BME280;9752;54.270;12.470;2023-01-01T16:42:10;101539.97;;;8.51;100.00
19236;BME280;9752;54.270;12.470;2023-01-01T16:47:13;101550.44;;;8.10;100.00
19236;BME280;9752;54.270;12.470;2023-01-01T16:52:15;101544.81;;;8.26;100.00
19236;BME280;9752;54.270;12.470;2023-01-01T16:57:17;101545.69;;;8.37;100.00
19236;BME280;9752;54.270;12.470;2023-01-01T17:02:20;101547.25;;;8.35;100.00
19236;BME280;9752;54.270;12.470;2023-01-01T17:07:22;101552.94;;;8.31;100.00
19236;BME280;9752;54.270;12.470;2023-01-01T17:12:23;101557.06;;;8.29;100.00
19236;BME280;9752;54.270;12.470;2023-01-01T17:17:26;101548.59;;;8.19;100.00
19236;BME280;9752;54.270;12.470;2023-01-01T17:22:28;101569.28;;;8.19;100.00
19236;BME280;9752;54.270;12.470;2023-01-01T17:27:30;101564.59;;;8.26;100.00
19236;BME280;9752;54.270;12.470;2023-01-01T17:32:33;101568.59;;;8.43;100.00
19236;BME280;9752;54.270;12.470;2023-01-01T17:37:34;101588.19;;;8.51;100.00
19236;BME280;9752;54.270;12.470;2023-01-01T17:42:36;101589.88;;;8.40;100.00
19236;BME280;9752;54.270;12.470;2023-01-01T17:47:39;101588.59;;;8.45;100.00
19236;BME280;9752;54.270;12.470;2023-01-01T17:52:41;101595.84;;;8.29;100.00
19236;BME280;9752;54.270;12.470;2023-01-01T17:57:42;101601.00;;;8.29;100.00
19236;BME280;9752;54.270;12.470;2023-01-01T18:02:45;101593.66;;;8.33;100.00
19236;BME280;9752;54.270;12.470;2023-01-01T18:07:47;101587.06;;;8.27;100.00
19236;BME280;9752;54.270;12.470;2023-01-01T18:12:49;101592.91;;;8.24;100.00
19236;BME280;9752;54.270;12.470;2023-01-01T18:17:52;101592.38;;;8.28;100.00
19236;BME280;9752;54.270;12.470;2023-01-01T18:22:53;101598.19;;;8.15;100.00
19236;BME280;9752;54.270;12.470;2023-01-01T18:27:55;101595.63;;;8.05;100.00
19236;BME280;9752;54.270;12.470;2023-01-01T18:32:59;101603.66;;;7.98;100.00
19236;BME280;9752;54.270;12.470;2023-01-01T18:38:00;101616.34;;;7.95;100.00
19236;BME280;9752;54.270;12.470;2023-01-01T18:43:05;101607.00;;;8.07;100.00
19236;BME280;9752;54.270;12.470;2023-01-01T18:48:11;101617.94;;;8.25;100.00
19236;BME280;9752;54.270;12.470;2023-01-01T18:53:14;101622.00;;;8.21;100.00
19236;BME280;9752;54.270;12.470;2023-01-01T18:58:21;101633.09;;;8.10;100.00
19236;BME280;9752;54.270;12.470;2023-01-01T19:03:25;101626.88;;;8.18;100.00
19236;BME280;9752;54.270;12.470;2023-01-01T19:08:28;101639.94;;;8.10;100.00
19236;BME280;9752;54.270;12.470;2023-01-01T19:13:33;101642.25;;;7.96;100.00
19236;BME280;9752;54.270;12.470;2023-01-01T19:18:38;101638.13;;;7.88;100.00
19236;BME280;9752;54.270;12.470;2023-01-01T19:23:45;101651.53;;;8.25;100.00
19236;BME280;9752;54.270;12.470;2023-01-01T19:28:51;101647.63;;;8.61;100.00
19236;BME280;9752;54.270;12.470;2023-01-01T19:33:55;101633.53;;;8.68;100.00
19236;BME280;9752;54.270;12.470;2023-01-01T19:38:56;101636.94;;;8.56;100.00
19236;BME280;9752;54.270;12.470;2023-01-01T19:43:58;101630.78;;;8.24;100.00
19236;BME280;9752;54.270;12.470;2023-01-01T19:49:01;101630.00;;;7.94;100.00
19236;BME280;9752;54.270;12.470;2023-01-01T19:54:03;101634.25;;;7.83;100.00
19236;BME280;9752;54.270;12.470;2023-01-01T19:59:06;101645.75;;;7.76;100.00
19236;BME280;9752;54.270;12.470;2023-01-01T20:04:09;101653.50;;;7.76;100.00
19236;BME280;9752;54.270;12.470;2023-01-01T20:09:11;101646.00;;;7.69;100.00
19236;BME280;9752;54.270;12.470;2023-01-01T20:14:13;101657.09;;;7.68;100.00
19236;BME280;9752;54.270;12.470;2023-01-01T20:19:16;101667.19;;;7.65;100.00
19236;BME280;9752;54.270;12.470;2023-01-01T20:24:18;101662.25;;;7.58;100.00
19236;BME280;9752;54.270;12.470;2023-01-01T20:29:19;101670.75;;;7.57;100.00
19236;BME280;9752;54.270;12.470;2023-01-01T20:34:23;101673.75;;;7.61;100.00
19236;BME280;9752;54.270;12.470;2023-01-01T20:39:25;101678.91;;;7.61;100.00
19236;BME280;9752;54.270;12.470;2023-01-01T20:44:28;101689.25;;;7.72;100.00
19236;BME280;9752;54.270;12.470;2023-01-01T20:49:31;101701.38;;;7.62;100.00
19236;BME280;9752;54.270;12.470;2023-01-01T20:54:33;101700.72;;;7.55;100.00
19236;BME280;9752;54.270;12.470;2023-01-01T20:59:36;101716.97;;;7.54;100.00
19236;BME280;9752;54.270;12.470;2023-01-01T21:04:39;101729.75;;;7.52;100.00
19236;BME280;9752;54.270;12.470;2023-01-01T21:09:40;101738.53;;;7.54;100.00
19236;BME280;9752;54.270;12.470;2023-01-01T21:14:42;101755.97;;;7.57;100.00
19236;BME280;9752;54.270;12.470;2023-01-01T21:19:46;101755.13;;;7.77;100.00
19236;BME280;9752;54.270;12.470;2023-01-01T21:24:47;101754.53;;;7.90;100.00
19236;BME280;9752;54.270;12.470;2023-01-01T21:29:51;101767.72;;;8.13;100.00
19236;BME280;9752;54.270;12.470;2023-01-01T21:34:54;101769.81;;;8.28;100.00
19236;BME280;9752;54.270;12.470;2023-01-01T21:39:56;101770.47;;;8.35;100.00
19236;BME280;9752;54.270;12.470;2023-01-01T21:44:58;101775.41;;;8.43;100.00
19236;BME280;9752;54.270;12.470;2023-01-01T21:50:04;101775.91;;;8.49;100.00
19236;BME280;9752;54.270;12.470;2023-01-01T21:55:23;101768.41;;;8.42;100.00
19236;BME280;9752;54.270;12.470;2023-01-01T22:00:46;101790.53;;;8.48;100.00
19236;BME280;9752;54.270;12.470;2023-01-01T22:05:49;101806.06;;;8.48;100.00
19236;BME280;9752;54.270;12.470;2023-01-01T22:10:50;101811.84;;;8.46;100.00
19236;BME280;9752;54.270;12.470;2023-01-01T22:15:52;101817.94;;;8.46;100.00
19236;BME280;9752;54.270;12.470;2023-01-01T22:20:55;101812.50;;;8.43;100.00
19236;BME280;9752;54.270;12.470;2023-01-01T22:25:57;101807.97;;;8.40;100.00
19236;BME280;9752;54.270;12.470;2023-01-01T22:31:00;101812.25;;;8.50;100.00
19236;BME280;9752;54.270;12.470;2023-01-01T22:36:09;101811.34;;;8.60;100.00
19236;BME280;9752;54.270;12.470;2023-01-01T22:41:14;101801.66;;;8.68;100.00
19236;BME280;9752;54.270;12.470;2023-01-01T22:46:21;101794.53;;;8.75;100.00
19236;BME280;9752;54.270;12.470;2023-01-01T22:51:31;101792.97;;;8.77;100.00
19236;BME280;9752;54.270;12.470;2023-01-01T22:56:34;101788.03;;;8.91;100.00
19236;BME280;9752;54.270;12.470;2023-01-01T23:01:37;101796.19;;;8.95;100.00
19236;BME280;9752;54.270;12.470;2023-01-01T23:06:40;101803.66;;;9.03;100.00
19236;BME280;9752;54.270;12.470;2023-01-01T23:11:42;101793.72;;;9.07;100.00
19236;BME280;9752;54.270;12.470;2023-01-01T23:16:44;101788.53;;;9.07;100.00
19236;BME280;9752;54.270;12.470;2023-01-01T23:21:47;101794.06;;;9.12;100.00
19236;BME280;9752;54.270;12.470;2023-01-01T23:26:50;101795.38;;;9.17;100.00
19236;BME280;9752;54.270;12.470;2023-01-01T23:31:52;101798.84;;;9.17;100.00
19236;BME280;9752;54.270;12.470;2023-01-01T23:36:56;101800.28;;;9.24;100.00
19236;BME280;9752;54.270;12.470;2023-01-01T23:41:58;101784.72;;;9.24;100.00
19236;BME280;9752;54.270;12.470;2023-01-01T23:47:00;101783.66;;;9.32;100.00
19236;BME280;9752;54.270;12.470;2023-01-01T23:52:04;101780.19;;;9.32;100.00
19236;BME280;9752;54.270;12.470;2023-01-01T23:57:06;101775.75;;;9.31;100.00
